sensor_id;sensor_type;location;lat;lon;timestamp;P1;durP1;ratioP1;P2;durP2;ratioP2
77625;SDS011;66794;43.764;10.436;2023-02-18T00:00:06;47.85;;;36.03;;
77625;SDS011;66794;43.764;10.436;2023-02-18T00:02:35;51.15;;;35.88;;
77625;SDS011;66794;43.764;10.436;2023-02-18T00:05:00;50.45;;;36.25;;
77625;SDS011;66794;43.764;10.436;2023-02-18T00:07:26;46.38;;;36.17;;
77625;SDS011;66794;43.764;10.436;2023-02-18T00:09:51;52.33;;;36.58;;
77625;SDS011;66794;43.764;10.436;2023-02-18T00:12:17;49.55;;;36.20;;
77625;SDS011;66794;43.764;10.436;2023-02-18T00:14:42;48.75;;;36.47;;
77625;SDS011;66794;43.764;10.436;2023-02-18T00:17:08;47.38;;;35.25;;
77625;SDS011;66794;43.764;10.436;2023-02-18T00:19:33;52.97;;;37.13;;
77625;SDS011;66794;43.764;10.436;2023-02-18T00:22:00;48.53;;;35.10;;
77625;SDS011;66794;43.764;10.436;2023-02-18T00:24:25;46.35;;;35.25;;
77625;SDS011;66794;43.764;10.436;2023-02-18T00:26:51;62.10;;;37.00;;
77625;SDS011;66794;43.764;10.436;2023-02-18T00:29:17;48.45;;;35.25;;
77625;SDS011;66794;43.764;10.436;2023-02-18T00:31:43;48.25;;;35.03;;
77625;SDS011;66794;43.764;10.436;2023-02-18T00:34:09;46.45;;;34.90;;
77625;SDS011;66794;43.764;10.436;2023-02-18T00:36:35;43.70;;;34.58;;
77625;SDS011;66794;43.764;10.436;2023-02-18T00:39:02;45.35;;;34.72;;
77625;SDS011;66794;43.764;10.436;2023-02-18T00:41:29;45.75;;;34.75;;
77625;SDS011;66794;43.764;10.436;2023-02-18T00:43:55;44.85;;;34.30;;
77625;SDS011;66794;43.764;10.436;2023-02-18T00:46:21;46.42;;;34.55;;
77625;SDS011;66794;43.764;10.436;2023-02-18T00:48:47;42.53;;;33.25;;
77625;SDS011;66794;43.764;10.436;2023-02-18T00:51:13;44.20;;;32.95;;
77625;SDS011;66794;43.764;10.436;2023-02-18T00:53:38;46.33;;;34.97;;
77625;SDS011;66794;43.764;10.436;2023-02-18T00:56:04;45.13;;;35.53;;
77625;SDS011;66794;43.764;10.436;2023-02-18T00:58:31;46.90;;;35.50;;
77625;SDS011;66794;43.764;10.436;2023-02-18T01:00:56;48.38;;;34.75;;
77625;SDS011;66794;43.764;10.436;2023-02-18T01:03:22;74.18;;;54.95;;
77625;SDS011;66794;43.764;10.436;2023-02-18T01:05:48;58.85;;;44.33;;
77625;SDS011;66794;43.764;10.436;2023-02-18T01:08:15;77.80;;;52.05;;
77625;SDS011;66794;43.764;10.436;2023-02-18T01:10:42;49.25;;;36.17;;
77625;SDS011;66794;43.764;10.436;2023-02-18T01:13:08;60.67;;;45.08;;
77625;SDS011;66794;43.764;10.436;2023-02-18T01:15:36;51.35;;;38.95;;
77625;SDS011;66794;43.764;10.436;2023-02-18T01:18:03;57.60;;;43.03;;
77625;SDS011;66794;43.764;10.436;2023-02-18T01:20:29;61.45;;;47.83;;
77625;SDS011;66794;43.764;10.436;2023-02-18T01:22:55;50.47;;;37.40;;
77625;SDS011;66794;43.764;10.436;2023-02-18T01:25:20;48.35;;;37.45;;
77625;SDS011;66794;43.764;10.436;2023-02-18T01:27:45;44.03;;;33.72;;
77625;SDS011;66794;43.764;10.436;2023-02-18T01:30:11;43.45;;;33.85;;
77625;SDS011;66794;43.764;10.436;2023-02-18T01:32:39;44.00;;;34.83;;
77625;SDS011;66794;43.764;10.436;2023-02-18T01:35:04;45.83;;;35.03;;
77625;SDS011;66794;43.764;10.436;2023-02-18T01:37:31;46.03;;;36.63;;
77625;SDS011;66794;43.764;10.436;2023-02-18T01:39:56;46.40;;;36.35;;
77625;SDS011;66794;43.764;10.436;2023-02-18T01:42:25;46.58;;;35.05;;
77625;SDS011;66794;43.764;10.436;2023-02-18T01:44:52;46.22;;;35.78;;
77625;SDS011;66794;43.764;10.436;2023-02-18T01:47:18;49.83;;;37.00;;
77625;SDS011;66794;43.764;10.436;2023-02-18T01:49:45;67.47;;;53.33;;
77625;SDS011;66794;43.764;10.436;2023-02-18T01:52:16;61.03;;;48.20;;
77625;SDS011;66794;43.764;10.436;2023-02-18T01:54:46;56.30;;;43.38;;
77625;SDS011;66794;43.764;10.436;2023-02-18T01:57:19;44.95;;;36.22;;
77625;SDS011;66794;43.764;10.436;2023-02-18T01:59:49;50.05;;;35.58;;
77625;SDS011;66794;43.764;10.436;2023-02-18T02:02:19;46.05;;;34.08;;
77625;SDS011;66794;43.764;10.436;2023-02-18T02:04:47;41.95;;;32.75;;
77625;SDS011;66794;43.764;10.436;2023-02-18T02:07:13;40.15;;;31.67;;
77625;SDS011;66794;43.764;10.436;2023-02-18T02:09:40;40.28;;;32.08;;
77625;SDS011;66794;43.764;10.436;2023-02-18T02:12:18;42.38;;;32.38;;
77625;SDS011;66794;43.764;10.436;2023-02-18T02:18:02;42.80;;;31.95;;
77625;SDS011;66794;43.764;10.436;2023-02-18T02:20:47;42.53;;;33.22;;
77625;SDS011;66794;43.764;10.436;2023-02-18T02:46:05;45.10;;;33.83;;
77625;SDS011;66794;43.764;10.436;2023-02-18T02:54:23;46.63;;;33.88;;
77625;SDS011;66794;43.764;10.436;2023-02-18T02:57:02;43.13;;;33.30;;
77625;SDS011;66794;43.764;10.436;2023-02-18T02:59:30;42.85;;;33.20;;
77625;SDS011;66794;43.764;10.436;2023-02-18T03:12:47;47.17;;;34.92;;
77625;SDS011;66794;43.764;10.436;2023-02-18T03:15:39;43.47;;;34.33;;
77625;SDS011;66794;43.764;10.436;2023-02-18T03:21:14;53.85;;;39.42;;
77625;SDS011;66794;43.764;10.436;2023-02-18T03:23:51;49.33;;;38.00;;
77625;SDS011;66794;43.764;10.436;2023-02-18T03:26:20;57.05;;;39.72;;
77625;SDS011;66794;43.764;10.436;2023-02-18T03:28:48;55.35;;;39.58;;
77625;SDS011;66794;43.764;10.436;2023-02-18T03:31:17;56.63;;;41.33;;
77625;SDS011;66794;43.764;10.436;2023-02-18T03:33:50;54.15;;;39.72;;
77625;SDS011;66794;43.764;10.436;2023-02-18T03:36:19;53.40;;;39.97;;
77625;SDS011;66794;43.764;10.436;2023-02-18T03:41:27;55.08;;;40.42;;
77625;SDS011;66794;43.764;10.436;2023-02-18T03:43:54;60.58;;;44.53;;
77625;SDS011;66794;43.764;10.436;2023-02-18T03:46:25;55.85;;;43.10;;
77625;SDS011;66794;43.764;10.436;2023-02-18T03:48:51;55.25;;;41.80;;
77625;SDS011;66794;43.764;10.436;2023-02-18T03:51:17;57.10;;;43.55;;
77625;SDS011;66794;43.764;10.436;2023-02-18T03:53:43;64.70;;;45.28;;
77625;SDS011;66794;43.764;10.436;2023-02-18T03:56:09;54.95;;;42.60;;
77625;SDS011;66794;43.764;10.436;2023-02-18T03:58:34;60.97;;;44.65;;
77625;SDS011;66794;43.764;10.436;2023-02-18T04:01:00;61.38;;;45.03;;
77625;SDS011;66794;43.764;10.436;2023-02-18T04:03:25;59.72;;;44.17;;
77625;SDS011;66794;43.764;10.436;2023-02-18T04:05:51;58.88;;;44.35;;
77625;SDS011;66794;43.764;10.436;2023-02-18T04:08:16;64.05;;;45.28;;
77625;SDS011;66794;43.764;10.436;2023-02-18T04:10:42;61.15;;;44.55;;
77625;SDS011;66794;43.764;10.436;2023-02-18T04:13:07;61.13;;;46.65;;
77625;SDS011;66794;43.764;10.436;2023-02-18T04:15:33;63.58;;;46.47;;
77625;SDS011;66794;43.764;10.436;2023-02-18T04:17:59;67.05;;;49.25;;
77625;SDS011;66794;43.764;10.436;2023-02-18T04:20:24;64.82;;;49.17;;
77625;SDS011;66794;43.764;10.436;2023-02-18T04:22:50;69.10;;;50.40;;
77625;SDS011;66794;43.764;10.436;2023-02-18T04:25:15;67.30;;;51.47;;
77625;SDS011;66794;43.764;10.436;2023-02-18T04:27:41;67.60;;;50.70;;
77625;SDS011;66794;43.764;10.436;2023-02-18T04:30:06;71.82;;;52.47;;
77625;SDS011;66794;43.764;10.436;2023-02-18T04:32:32;68.78;;;52.97;;
77625;SDS011;66794;43.764;10.436;2023-02-18T04:34:58;66.95;;;50.55;;
77625;SDS011;66794;43.764;10.436;2023-02-18T04:37:23;68.05;;;51.55;;
77625;SDS011;66794;43.764;10.436;2023-02-18T04:39:48;69.85;;;53.55;;
77625;SDS011;66794;43.764;10.436;2023-02-18T04:42:14;70.78;;;52.95;;
77625;SDS011;66794;43.764;10.436;2023-02-18T04:44:39;72.38;;;52.53;;
77625;SDS011;66794;43.764;10.436;2023-02-18T04:47:05;68.78;;;52.17;;
77625;SDS011;66794;43.764;10.436;2023-02-18T04:49:31;75.05;;;53.92;;
77625;SDS011;66794;43.764;10.436;2023-02-18T04:51:57;70.20;;;52.10;;
77625;SDS011;66794;43.764;10.436;2023-02-18T04:54:22;70.97;;;52.67;;
77625;SDS011;66794;43.764;10.436;2023-02-18T04:56:48;71.18;;;53.30;;
77625;SDS011;66794;43.764;10.436;2023-02-18T04:59:13;86.93;;;51.53;;
77625;SDS011;66794;43.764;10.436;2023-02-18T05:01:39;69.13;;;52.35;;
77625;SDS011;66794;43.764;10.436;2023-02-18T05:04:04;69.90;;;51.75;;
77625;SDS011;66794;43.764;10.436;2023-02-18T05:06:30;71.25;;;52.90;;
77625;SDS011;66794;43.764;10.436;2023-02-18T05:08:55;71.10;;;52.83;;
77625;SDS011;66794;43.764;10.436;2023-02-18T05:11:24;66.28;;;51.78;;
77625;SDS011;66794;43.764;10.436;2023-02-18T05:13:49;70.63;;;51.30;;
77625;SDS011;66794;43.764;10.436;2023-02-18T05:16:15;72.25;;;51.30;;
77625;SDS011;66794;43.764;10.436;2023-02-18T05:18:40;69.35;;;52.20;;
77625;SDS011;66794;43.764;10.436;2023-02-18T05:21:06;69.80;;;50.83;;
77625;SDS011;66794;43.764;10.436;2023-02-18T05:23:31;71.43;;;50.08;;
77625;SDS011;66794;43.764;10.436;2023-02-18T05:25:57;67.85;;;51.80;;
77625;SDS011;66794;43.764;10.436;2023-02-18T05:28:22;64.95;;;49.58;;
77625;SDS011;66794;43.764;10.436;2023-02-18T05:30:48;65.88;;;49.65;;
77625;SDS011;66794;43.764;10.436;2023-02-18T05:33:13;66.70;;;50.05;;
77625;SDS011;66794;43.764;10.436;2023-02-18T05:35:39;70.00;;;48.08;;
77625;SDS011;66794;43.764;10.436;2023-02-18T05:38:04;65.75;;;49.70;;
77625;SDS011;66794;43.764;10.436;2023-02-18T05:40:30;66.63;;;49.28;;
77625;SDS011;66794;43.764;10.436;2023-02-18T05:42:55;66.25;;;50.97;;
77625;SDS011;66794;43.764;10.436;2023-02-18T05:45:21;62.55;;;47.42;;
77625;SDS011;66794;43.764;10.436;2023-02-18T05:47:46;63.78;;;48.13;;
77625;SDS011;66794;43.764;10.436;2023-02-18T05:50:12;66.60;;;47.42;;
77625;SDS011;66794;43.764;10.436;2023-02-18T05:52:37;63.88;;;46.63;;
77625;SDS011;66794;43.764;10.436;2023-02-18T05:55:03;64.80;;;47.65;;
77625;SDS011;66794;43.764;10.436;2023-02-18T05:57:29;59.30;;;45.47;;
77625;SDS011;66794;43.764;10.436;2023-02-18T05:59:54;62.70;;;45.63;;
77625;SDS011;66794;43.764;10.436;2023-02-18T06:02:20;56.90;;;44.25;;
77625;SDS011;66794;43.764;10.436;2023-02-18T06:04:45;61.00;;;44.97;;
77625;SDS011;66794;43.764;10.436;2023-02-18T06:07:11;58.63;;;44.13;;
77625;SDS011;66794;43.764;10.436;2023-02-18T06:09:36;61.47;;;45.33;;
77625;SDS011;66794;43.764;10.436;2023-02-18T06:12:02;77.30;;;62.95;;
77625;SDS011;66794;43.764;10.436;2023-02-18T06:14:27;71.53;;;56.15;;
77625;SDS011;66794;43.764;10.436;2023-02-18T06:16:53;60.05;;;44.92;;
77625;SDS011;66794;43.764;10.436;2023-02-18T06:19:18;58.17;;;44.30;;
77625;SDS011;66794;43.764;10.436;2023-02-18T06:21:44;60.88;;;44.78;;
77625;SDS011;66794;43.764;10.436;2023-02-18T06:24:09;61.95;;;44.00;;
77625;SDS011;66794;43.764;10.436;2023-02-18T06:26:35;60.20;;;44.33;;
77625;SDS011;66794;43.764;10.436;2023-02-18T06:29:00;62.13;;;44.67;;
77625;SDS011;66794;43.764;10.436;2023-02-18T06:31:26;59.67;;;44.45;;
77625;SDS011;66794;43.764;10.436;2023-02-18T06:33:52;55.50;;;43.67;;
77625;SDS011;66794;43.764;10.436;2023-02-18T06:36:17;56.55;;;42.70;;
77625;SDS011;66794;43.764;10.436;2023-02-18T06:38:43;55.00;;;41.20;;
77625;SDS011;66794;43.764;10.436;2023-02-18T06:41:10;57.03;;;41.75;;
77625;SDS011;66794;43.764;10.436;2023-02-18T06:43:36;56.42;;;41.00;;
77625;SDS011;66794;43.764;10.436;2023-02-18T06:46:02;56.60;;;40.63;;
77625;SDS011;66794;43.764;10.436;2023-02-18T06:48:28;58.85;;;42.40;;
77625;SDS011;66794;43.764;10.436;2023-02-18T06:50:54;60.60;;;41.45;;
77625;SDS011;66794;43.764;10.436;2023-02-18T06:53:20;52.85;;;40.28;;
77625;SDS011;66794;43.764;10.436;2023-02-18T06:55:45;58.42;;;40.47;;
77625;SDS011;66794;43.764;10.436;2023-02-18T06:58:11;57.35;;;40.83;;
77625;SDS011;66794;43.764;10.436;2023-02-18T07:00:38;53.72;;;41.22;;
77625;SDS011;66794;43.764;10.436;2023-02-18T07:03:04;56.60;;;40.88;;
77625;SDS011;66794;43.764;10.436;2023-02-18T07:05:31;55.85;;;42.10;;
77625;SDS011;66794;43.764;10.436;2023-02-18T07:07:56;59.65;;;44.42;;
77625;SDS011;66794;43.764;10.436;2023-02-18T07:10:22;56.78;;;42.63;;
77625;SDS011;66794;43.764;10.436;2023-02-18T07:12:48;66.35;;;46.13;;
77625;SDS011;66794;43.764;10.436;2023-02-18T07:15:13;62.28;;;44.13;;
77625;SDS011;66794;43.764;10.436;2023-02-18T07:17:39;56.97;;;42.80;;
77625;SDS011;66794;43.764;10.436;2023-02-18T07:20:05;59.67;;;43.75;;
77625;SDS011;66794;43.764;10.436;2023-02-18T07:22:31;58.90;;;45.40;;
77625;SDS011;66794;43.764;10.436;2023-02-18T07:24:57;61.88;;;46.10;;
77625;SDS011;66794;43.764;10.436;2023-02-18T07:27:22;61.38;;;46.50;;
77625;SDS011;66794;43.764;10.436;2023-02-18T07:29:48;60.13;;;45.45;;
77625;SDS011;66794;43.764;10.436;2023-02-18T07:32:14;63.25;;;45.35;;
77625;SDS011;66794;43.764;10.436;2023-02-18T07:34:41;64.82;;;46.00;;
77625;SDS011;66794;43.764;10.436;2023-02-18T07:37:07;68.03;;;47.80;;
77625;SDS011;66794;43.764;10.436;2023-02-18T07:39:40;68.93;;;50.67;;
77625;SDS011;66794;43.764;10.436;2023-02-18T07:42:06;63.00;;;48.17;;
77625;SDS011;66794;43.764;10.436;2023-02-18T07:44:32;63.40;;;47.00;;
77625;SDS011;66794;43.764;10.436;2023-02-18T07:46:58;65.65;;;46.65;;
77625;SDS011;66794;43.764;10.436;2023-02-18T07:49:24;64.95;;;47.65;;
77625;SDS011;66794;43.764;10.436;2023-02-18T07:51:49;67.45;;;47.25;;
77625;SDS011;66794;43.764;10.436;2023-02-18T07:54:15;62.70;;;47.53;;
77625;SDS011;66794;43.764;10.436;2023-02-18T07:56:42;63.15;;;48.20;;
77625;SDS011;66794;43.764;10.436;2023-02-18T07:59:08;65.43;;;47.88;;
77625;SDS011;66794;43.764;10.436;2023-02-18T08:01:34;64.78;;;48.17;;
77625;SDS011;66794;43.764;10.436;2023-02-18T08:04:00;64.40;;;46.65;;
77625;SDS011;66794;43.764;10.436;2023-02-18T08:06:27;61.67;;;48.13;;
77625;SDS011;66794;43.764;10.436;2023-02-18T08:09:05;65.18;;;48.17;;
77625;SDS011;66794;43.764;10.436;2023-02-18T08:11:31;69.13;;;49.60;;
77625;SDS011;66794;43.764;10.436;2023-02-18T08:13:57;67.28;;;47.50;;
77625;SDS011;66794;43.764;10.436;2023-02-18T08:16:22;64.63;;;47.92;;
77625;SDS011;66794;43.764;10.436;2023-02-18T08:18:48;65.55;;;46.90;;
77625;SDS011;66794;43.764;10.436;2023-02-18T08:21:15;63.25;;;47.22;;
77625;SDS011;66794;43.764;10.436;2023-02-18T08:23:42;64.90;;;46.72;;
77625;SDS011;66794;43.764;10.436;2023-02-18T08:26:08;63.58;;;46.83;;
77625;SDS011;66794;43.764;10.436;2023-02-18T08:28:34;67.82;;;48.58;;
77625;SDS011;66794;43.764;10.436;2023-02-18T08:30:59;71.50;;;49.00;;
77625;SDS011;66794;43.764;10.436;2023-02-18T08:33:25;72.00;;;47.85;;
77625;SDS011;66794;43.764;10.436;2023-02-18T08:35:51;68.25;;;45.58;;
77625;SDS011;66794;43.764;10.436;2023-02-18T08:38:18;59.38;;;41.53;;
77625;SDS011;66794;43.764;10.436;2023-02-18T08:40:44;56.95;;;40.17;;
77625;SDS011;66794;43.764;10.436;2023-02-18T08:43:10;66.28;;;47.60;;
77625;SDS011;66794;43.764;10.436;2023-02-18T08:45:37;71.22;;;49.53;;
77625;SDS011;66794;43.764;10.436;2023-02-18T08:48:04;72.05;;;48.60;;
77625;SDS011;66794;43.764;10.436;2023-02-18T08:50:30;56.40;;;41.30;;
77625;SDS011;66794;43.764;10.436;2023-02-18T08:52:56;61.45;;;43.55;;
77625;SDS011;66794;43.764;10.436;2023-02-18T08:55:24;65.72;;;44.92;;
77625;SDS011;66794;43.764;10.436;2023-02-18T08:57:50;70.50;;;48.78;;
77625;SDS011;66794;43.764;10.436;2023-02-18T09:00:16;83.80;;;57.10;;
77625;SDS011;66794;43.764;10.436;2023-02-18T09:02:42;73.00;;;49.67;;
77625;SDS011;66794;43.764;10.436;2023-02-18T09:05:08;61.55;;;45.33;;
77625;SDS011;66794;43.764;10.436;2023-02-18T09:07:35;74.35;;;49.75;;
77625;SDS011;66794;43.764;10.436;2023-02-18T09:10:01;83.57;;;57.28;;
77625;SDS011;66794;43.764;10.436;2023-02-18T09:12:27;87.53;;;57.30;;
77625;SDS011;66794;43.764;10.436;2023-02-18T09:14:53;68.45;;;48.58;;
77625;SDS011;66794;43.764;10.436;2023-02-18T09:17:18;60.75;;;43.35;;
77625;SDS011;66794;43.764;10.436;2023-02-18T09:19:44;54.33;;;40.83;;
77625;SDS011;66794;43.764;10.436;2023-02-18T09:22:10;57.58;;;42.13;;
77625;SDS011;66794;43.764;10.436;2023-02-18T09:24:39;56.53;;;40.65;;
77625;SDS011;66794;43.764;10.436;2023-02-18T09:27:05;75.78;;;53.90;;
77625;SDS011;66794;43.764;10.436;2023-02-18T09:29:31;58.80;;;41.95;;
77625;SDS011;66794;43.764;10.436;2023-02-18T09:32:01;60.35;;;42.00;;
77625;SDS011;66794;43.764;10.436;2023-02-18T09:34:27;60.50;;;45.10;;
77625;SDS011;66794;43.764;10.436;2023-02-18T09:36:52;58.40;;;42.85;;
77625;SDS011;66794;43.764;10.436;2023-02-18T09:39:18;55.47;;;40.53;;
77625;SDS011;66794;43.764;10.436;2023-02-18T09:41:45;52.38;;;39.45;;
77625;SDS011;66794;43.764;10.436;2023-02-18T09:49:58;56.40;;;41.13;;
77625;SDS011;66794;43.764;10.436;2023-02-18T09:52:31;60.13;;;42.40;;
77625;SDS011;66794;43.764;10.436;2023-02-18T09:55:05;59.42;;;43.95;;
77625;SDS011;66794;43.764;10.436;2023-02-18T10:02:48;54.78;;;41.50;;
77625;SDS011;66794;43.764;10.436;2023-02-18T10:05:18;53.20;;;41.58;;
77625;SDS011;66794;43.764;10.436;2023-02-18T10:07:45;52.83;;;40.40;;
77625;SDS011;66794;43.764;10.436;2023-02-18T10:10:17;52.70;;;40.63;;
77625;SDS011;66794;43.764;10.436;2023-02-18T10:12:54;54.20;;;42.45;;
77625;SDS011;66794;43.764;10.436;2023-02-18T10:15:21;57.83;;;41.80;;
77625;SDS011;66794;43.764;10.436;2023-02-18T10:17:49;57.47;;;43.00;;
77625;SDS011;66794;43.764;10.436;2023-02-18T10:20:19;55.53;;;42.72;;
77625;SDS011;66794;43.764;10.436;2023-02-18T10:22:50;62.03;;;46.22;;
77625;SDS011;66794;43.764;10.436;2023-02-18T10:25:19;64.97;;;49.33;;
77625;SDS011;66794;43.764;10.436;2023-02-18T10:27:48;66.70;;;48.15;;
77625;SDS011;66794;43.764;10.436;2023-02-18T10:30:23;66.88;;;49.03;;
77625;SDS011;66794;43.764;10.436;2023-02-18T10:32:55;61.20;;;47.42;;
77625;SDS011;66794;43.764;10.436;2023-02-18T10:35:41;64.35;;;48.72;;
77625;SDS011;66794;43.764;10.436;2023-02-18T10:38:32;61.78;;;45.67;;
77625;SDS011;66794;43.764;10.436;2023-02-18T10:44:29;60.60;;;48.40;;
77625;SDS011;66794;43.764;10.436;2023-02-18T10:49:59;59.17;;;44.47;;
77625;SDS011;66794;43.764;10.436;2023-02-18T10:52:44;104.97;;;78.40;;
77625;SDS011;66794;43.764;10.436;2023-02-18T10:55:15;86.13;;;63.47;;
77625;SDS011;66794;43.764;10.436;2023-02-18T10:57:49;66.05;;;48.60;;
77625;SDS011;66794;43.764;10.436;2023-02-18T11:00:18;68.60;;;50.50;;
77625;SDS011;66794;43.764;10.436;2023-02-18T11:02:59;118.95;;;87.50;;
77625;SDS011;66794;43.764;10.436;2023-02-18T11:05:28;63.90;;;49.05;;
77625;SDS011;66794;43.764;10.436;2023-02-18T11:07:55;56.60;;;43.45;;
77625;SDS011;66794;43.764;10.436;2023-02-18T11:10:26;83.95;;;63.03;;
77625;SDS011;66794;43.764;10.436;2023-02-18T11:12:56;66.78;;;51.00;;
77625;SDS011;66794;43.764;10.436;2023-02-18T11:15:25;74.32;;;53.03;;
77625;SDS011;66794;43.764;10.436;2023-02-18T11:17:52;84.57;;;66.00;;
77625;SDS011;66794;43.764;10.436;2023-02-18T11:22:44;62.10;;;49.63;;
77625;SDS011;66794;43.764;10.436;2023-02-18T11:25:30;65.45;;;52.75;;
77625;SDS011;66794;43.764;10.436;2023-02-18T11:28:02;69.70;;;53.33;;
77625;SDS011;66794;43.764;10.436;2023-02-18T11:30:30;56.65;;;45.30;;
77625;SDS011;66794;43.764;10.436;2023-02-18T11:33:00;58.80;;;44.63;;
77625;SDS011;66794;43.764;10.436;2023-02-18T11:35:30;59.03;;;46.28;;
77625;SDS011;66794;43.764;10.436;2023-02-18T11:37:58;70.18;;;51.22;;
77625;SDS011;66794;43.764;10.436;2023-02-18T11:40:35;70.60;;;52.38;;
77625;SDS011;66794;43.764;10.436;2023-02-18T11:43:19;73.55;;;55.10;;
77625;SDS011;66794;43.764;10.436;2023-02-18T11:45:44;64.80;;;50.20;;
77625;SDS011;66794;43.764;10.436;2023-02-18T11:48:15;72.35;;;52.90;;
77625;SDS011;66794;43.764;10.436;2023-02-18T11:50:42;161.45;;;116.78;;
77625;SDS011;66794;43.764;10.436;2023-02-18T11:53:25;70.38;;;53.70;;
77625;SDS011;66794;43.764;10.436;2023-02-18T11:55:54;90.40;;;64.43;;
77625;SDS011;66794;43.764;10.436;2023-02-18T11:58:21;80.85;;;58.38;;
77625;SDS011;66794;43.764;10.436;2023-02-18T12:00:47;81.50;;;56.75;;
77625;SDS011;66794;43.764;10.436;2023-02-18T12:05:57;90.10;;;60.90;;
77625;SDS011;66794;43.764;10.436;2023-02-18T12:08:27;82.63;;;57.42;;
77625;SDS011;66794;43.764;10.436;2023-02-18T12:11:00;80.70;;;55.15;;
77625;SDS011;66794;43.764;10.436;2023-02-18T12:16:12;80.15;;;59.85;;
77625;SDS011;66794;43.764;10.436;2023-02-18T12:19:03;81.68;;;58.55;;
77625;SDS011;66794;43.764;10.436;2023-02-18T12:46:26;107.35;;;78.28;;
77625;SDS011;66794;43.764;10.436;2023-02-18T12:54:22;61.28;;;45.25;;
77625;SDS011;66794;43.764;10.436;2023-02-18T12:57:04;62.70;;;43.97;;
77625;SDS011;66794;43.764;10.436;2023-02-18T13:07:43;43.45;;;34.97;;
77625;SDS011;66794;43.764;10.436;2023-02-18T13:10:40;50.97;;;35.30;;
77625;SDS011;66794;43.764;10.436;2023-02-18T13:13:31;51.33;;;37.50;;
77625;SDS011;66794;43.764;10.436;2023-02-18T13:16:12;45.38;;;35.78;;
77625;SDS011;66794;43.764;10.436;2023-02-18T13:18:44;61.97;;;44.95;;
77625;SDS011;66794;43.764;10.436;2023-02-18T13:21:18;54.03;;;41.47;;
77625;SDS011;66794;43.764;10.436;2023-02-18T13:26:15;56.30;;;43.00;;
77625;SDS011;66794;43.764;10.436;2023-02-18T13:29:46;55.25;;;42.22;;
77625;SDS011;66794;43.764;10.436;2023-02-18T13:31:53;59.40;;;45.17;;
77625;SDS011;66794;43.764;10.436;2023-02-18T13:37:14;57.53;;;43.22;;
77625;SDS011;66794;43.764;10.436;2023-02-18T13:39:46;58.17;;;43.25;;
77625;SDS011;66794;43.764;10.436;2023-02-18T13:47:15;47.33;;;37.90;;
77625;SDS011;66794;43.764;10.436;2023-02-18T13:55:45;50.90;;;40.83;;
77625;SDS011;66794;43.764;10.436;2023-02-18T14:01:05;49.47;;;35.97;;
77625;SDS011;66794;43.764;10.436;2023-02-18T14:06:20;42.75;;;33.30;;
77625;SDS011;66794;43.764;10.436;2023-02-18T14:09:02;48.00;;;35.22;;
77625;SDS011;66794;43.764;10.436;2023-02-18T14:11:38;32.63;;;25.20;;
77625;SDS011;66794;43.764;10.436;2023-02-18T14:14:49;26.52;;;19.25;;
77625;SDS011;66794;43.764;10.436;2023-02-18T14:19:53;12.23;;;8.90;;
77625;SDS011;66794;43.764;10.436;2023-02-18T14:24:56;14.77;;;11.02;;
77625;SDS011;66794;43.764;10.436;2023-02-18T14:27:28;12.60;;;8.70;;
77625;SDS011;66794;43.764;10.436;2023-02-18T14:29:53;13.65;;;9.40;;
77625;SDS011;66794;43.764;10.436;2023-02-18T14:32:19;11.80;;;9.30;;
77625;SDS011;66794;43.764;10.436;2023-02-18T14:40:55;12.18;;;9.00;;
77625;SDS011;66794;43.764;10.436;2023-02-18T14:46:18;13.77;;;9.57;;
77625;SDS011;66794;43.764;10.436;2023-02-18T14:48:56;17.38;;;10.35;;
77625;SDS011;66794;43.764;10.436;2023-02-18T14:51:41;16.50;;;11.23;;
77625;SDS011;66794;43.764;10.436;2023-02-18T14:54:13;13.93;;;11.18;;
77625;SDS011;66794;43.764;10.436;2023-02-18T14:56:50;16.45;;;11.68;;
77625;SDS011;66794;43.764;10.436;2023-02-18T14:59:20;18.17;;;11.38;;
77625;SDS011;66794;43.764;10.436;2023-02-18T15:01:48;19.33;;;11.43;;
77625;SDS011;66794;43.764;10.436;2023-02-18T15:04:13;17.02;;;11.98;;
77625;SDS011;66794;43.764;10.436;2023-02-18T15:06:40;17.00;;;12.40;;
77625;SDS011;66794;43.764;10.436;2023-02-18T15:11:41;18.20;;;13.80;;
77625;SDS011;66794;43.764;10.436;2023-02-18T15:14:18;27.75;;;22.23;;
77625;SDS011;66794;43.764;10.436;2023-02-18T15:16:47;45.85;;;32.15;;
77625;SDS011;66794;43.764;10.436;2023-02-18T15:20:01;32.67;;;24.42;;
77625;SDS011;66794;43.764;10.436;2023-02-18T15:22:04;25.08;;;18.52;;
77625;SDS011;66794;43.764;10.436;2023-02-18T15:24:30;23.23;;;17.52;;
77625;SDS011;66794;43.764;10.436;2023-02-18T15:26:59;24.08;;;17.88;;
77625;SDS011;66794;43.764;10.436;2023-02-18T15:29:31;28.77;;;21.92;;
77625;SDS011;66794;43.764;10.436;2023-02-18T15:32:00;23.47;;;18.40;;
77625;SDS011;66794;43.764;10.436;2023-02-18T15:34:35;18.65;;;14.43;;
77625;SDS011;66794;43.764;10.436;2023-02-18T15:37:03;21.92;;;12.98;;
77625;SDS011;66794;43.764;10.436;2023-02-18T15:39:31;20.50;;;16.00;;
77625;SDS011;66794;43.764;10.436;2023-02-18T15:42:00;22.63;;;16.33;;
77625;SDS011;66794;43.764;10.436;2023-02-18T15:44:33;29.20;;;19.23;;
77625;SDS011;66794;43.764;10.436;2023-02-18T15:47:01;26.67;;;18.77;;
77625;SDS011;66794;43.764;10.436;2023-02-18T15:49:32;24.13;;;18.38;;
77625;SDS011;66794;43.764;10.436;2023-02-18T15:51:59;24.13;;;18.50;;
77625;SDS011;66794;43.764;10.436;2023-02-18T15:54:26;21.20;;;16.75;;
77625;SDS011;66794;43.764;10.436;2023-02-18T15:56:53;25.95;;;17.83;;
77625;SDS011;66794;43.764;10.436;2023-02-18T15:59:24;34.08;;;19.08;;
77625;SDS011;66794;43.764;10.436;2023-02-18T16:01:56;29.33;;;18.58;;
77625;SDS011;66794;43.764;10.436;2023-02-18T16:04:33;38.83;;;27.27;;
77625;SDS011;66794;43.764;10.436;2023-02-18T16:07:03;29.85;;;20.35;;
77625;SDS011;66794;43.764;10.436;2023-02-18T16:09:43;40.92;;;29.13;;
77625;SDS011;66794;43.764;10.436;2023-02-18T16:12:13;34.03;;;24.65;;
77625;SDS011;66794;43.764;10.436;2023-02-18T16:14:52;26.23;;;19.73;;
77625;SDS011;66794;43.764;10.436;2023-02-18T16:17:20;27.95;;;20.02;;
77625;SDS011;66794;43.764;10.436;2023-02-18T16:22:21;44.40;;;26.90;;
77625;SDS011;66794;43.764;10.436;2023-02-18T16:24:54;38.58;;;27.00;;
77625;SDS011;66794;43.764;10.436;2023-02-18T16:27:26;34.30;;;21.73;;
77625;SDS011;66794;43.764;10.436;2023-02-18T16:29:56;28.33;;;20.02;;
77625;SDS011;66794;43.764;10.436;2023-02-18T16:32:24;28.85;;;21.42;;
77625;SDS011;66794;43.764;10.436;2023-02-18T16:34:50;33.60;;;21.15;;
77625;SDS011;66794;43.764;10.436;2023-02-18T16:37:16;27.70;;;19.02;;
77625;SDS011;66794;43.764;10.436;2023-02-18T16:40:00;23.77;;;16.83;;
77625;SDS011;66794;43.764;10.436;2023-02-18T16:42:25;20.45;;;17.23;;
77625;SDS011;66794;43.764;10.436;2023-02-18T16:44:51;27.13;;;17.90;;
77625;SDS011;66794;43.764;10.436;2023-02-18T16:47:16;25.25;;;17.88;;
77625;SDS011;66794;43.764;10.436;2023-02-18T16:49:44;26.20;;;17.67;;